createdAt,value
2022-10-13T00:00:28.297Z,10.59
2022-10-13T00:02:54.931Z,10.55
2022-10-13T00:05:22.099Z,10.53
2022-10-13T00:07:48.464Z,10.52
2022-10-13T00:10:14.793Z,10.51
2022-10-13T00:12:41.187Z,10.50
2022-10-13T00:15:08.676Z,10.51
2022-10-13T00:17:36.472Z,10.52
2022-10-13T00:20:04.271Z,10.54
2022-10-13T00:22:30.666Z,10.56
2022-10-13T00:24:57.083Z,10.57
2022-10-13T00:27:23.519Z,10.61
2022-10-13T00:29:49.839Z,10.62
2022-10-13T00:32:16.492Z,10.64
2022-10-13T00:34:43.165Z,10.65
2022-10-13T00:37:09.510Z,10.67
2022-10-13T00:39:37.559Z,10.70
2022-10-13T00:42:04.554Z,10.70
2022-10-13T00:45:12.299Z,10.73
2022-10-13T00:47:42.535Z,10.74
2022-10-13T00:50:16.566Z,10.74
2022-10-13T00:52:44.051Z,10.72
2022-10-13T00:55:13.549Z,10.72
2022-10-13T00:57:43.480Z,10.71
2022-10-13T01:00:10.563Z,10.70
2022-10-13T01:02:38.206Z,10.70
2022-10-13T01:05:07.068Z,10.70
2022-10-13T01:07:35.084Z,10.68
2022-10-13T01:10:02.593Z,10.68
2022-10-13T01:12:38.594Z,10.68
2022-10-13T01:15:15.276Z,10.67
2022-10-13T01:17:56.872Z,10.67
2022-10-13T01:20:41.912Z,10.65
2022-10-13T01:23:45.377Z,10.65
2022-10-13T01:27:00.128Z,10.64
2022-10-13T01:29:45.499Z,10.62
2022-10-13T01:32:29.038Z,10.61
2022-10-13T01:35:07.984Z,10.61
2022-10-13T01:37:48.941Z,10.60
2022-10-13T01:40:23.785Z,10.58
2022-10-13T01:43:02.252Z,10.60
2022-10-13T01:45:33.809Z,10.61
2022-10-13T01:48:01.979Z,10.62
2022-10-13T01:50:28.433Z,10.65
2022-10-13T01:52:55.823Z,10.68
2022-10-13T01:55:22.390Z,10.71
2022-10-13T01:57:48.727Z,10.74
2022-10-13T02:00:18.967Z,10.79
2022-10-13T02:02:54.278Z,10.83
2022-10-13T02:05:35.818Z,10.87
2022-10-13T02:08:25.055Z,10.90
2022-10-13T02:11:14.473Z,10.93
2022-10-13T02:13:47.331Z,10.95
2022-10-13T02:16:16.004Z,10.97
2022-10-13T02:18:44.143Z,11.01
2022-10-13T02:21:10.611Z,11.04
2022-10-13T02:23:37.043Z,11.08
2022-10-13T02:26:03.804Z,11.11
2022-10-13T02:28:30.227Z,11.14
2022-10-13T02:30:56.704Z,11.19
2022-10-13T02:33:23.108Z,11.22
2022-10-13T02:35:49.456Z,11.26
2022-10-13T02:38:15.874Z,11.28
2022-10-13T02:40:42.311Z,11.32
2022-10-13T02:43:08.651Z,11.34
2022-10-13T02:45:35.185Z,11.36
2022-10-13T02:48:01.596Z,11.37
2022-10-13T02:50:28.025Z,11.37
2022-10-13T02:52:54.386Z,11.38
2022-10-13T02:55:21.037Z,11.39
2022-10-13T02:57:47.387Z,11.38
2022-10-13T03:00:15.032Z,11.39
2022-10-13T03:02:41.759Z,11.39
2022-10-13T03:05:08.813Z,11.39
2022-10-13T03:07:35.172Z,11.41
2022-10-13T03:10:01.763Z,11.42
2022-10-13T03:12:28.151Z,11.43
2022-10-13T03:14:54.506Z,11.47
2022-10-13T03:17:20.863Z,11.49
2022-10-13T03:19:47.188Z,11.53
2022-10-13T03:22:15.328Z,11.57
2022-10-13T03:24:42.608Z,11.61
2022-10-13T03:27:09.022Z,11.65
2022-10-13T03:29:35.344Z,11.69
2022-10-13T03:32:01.867Z,11.74
2022-10-13T03:34:28.195Z,11.78
2022-10-13T03:36:54.518Z,11.82
2022-10-13T03:39:22.195Z,11.87
2022-10-13T03:41:48.544Z,11.90
2022-10-13T03:44:14.891Z,11.92
2022-10-13T03:46:41.355Z,11.94
2022-10-13T03:49:07.711Z,11.95
2022-10-13T03:51:34.119Z,11.96
2022-10-13T03:54:00.625Z,11.99
2022-10-13T03:56:27.407Z,12.00
2022-10-13T03:58:59.246Z,12.02
2022-10-13T04:01:28.312Z,12.03
2022-10-13T04:03:55.856Z,12.04
2022-10-13T04:06:24.618Z,12.06
2022-10-13T04:08:51.640Z,12.08
2022-10-13T04:11:18.893Z,12.10
2022-10-13T04:13:45.964Z,12.13
2022-10-13T04:16:16.412Z,12.16
2022-10-13T04:18:44.896Z,12.19
2022-10-13T04:21:14.896Z,12.21
2022-10-13T04:23:41.795Z,12.22
2022-10-13T04:26:18.896Z,12.26
2022-10-13T04:28:46.934Z,12.26
2022-10-13T04:31:13.728Z,12.26
2022-10-13T04:33:40.309Z,12.27
2022-10-13T04:36:09.276Z,12.27
2022-10-13T04:38:35.653Z,12.27
2022-10-13T04:41:04.027Z,12.28
2022-10-13T04:43:31.019Z,12.27
2022-10-13T04:46:08.635Z,12.28
2022-10-13T04:48:35.066Z,12.27
2022-10-13T04:51:08.952Z,12.29
2022-10-13T04:53:35.918Z,12.28
2022-10-13T04:56:04.781Z,12.31
2022-10-13T04:58:31.885Z,12.33
2022-10-13T05:00:58.623Z,12.32
2022-10-13T05:03:25.969Z,12.33
2022-10-13T05:05:53.248Z,12.34
2022-10-13T05:08:19.927Z,12.37
2022-10-13T05:10:57.610Z,12.39
2022-10-13T05:13:25.323Z,12.40
2022-10-13T05:15:51.767Z,12.41
2022-10-13T05:18:18.217Z,12.42
2022-10-13T05:20:44.614Z,12.44
2022-10-13T05:23:10.953Z,12.44
2022-10-13T05:25:38.034Z,12.44
2022-10-13T05:28:06.558Z,12.45
2022-10-13T05:30:33.076Z,12.46
2022-10-13T05:32:59.688Z,12.45
2022-10-13T05:35:26.741Z,12.44
2022-10-13T05:37:53.253Z,12.44
2022-10-13T05:40:22.467Z,12.44
2022-10-13T05:42:50.731Z,12.44
2022-10-13T05:45:18.261Z,12.43
2022-10-13T05:47:44.634Z,12.43
2022-10-13T05:50:11.072Z,12.44
2022-10-13T05:52:37.849Z,12.43
2022-10-13T05:55:07.497Z,12.43
2022-10-13T05:57:38.126Z,12.44
2022-10-13T06:00:08.967Z,12.44
2022-10-13T06:03:03.226Z,12.43
2022-10-13T06:05:32.669Z,12.44
2022-10-13T06:08:00.058Z,12.43
2022-10-13T06:10:26.725Z,12.43
2022-10-13T06:12:53.054Z,12.42
2022-10-13T06:15:19.406Z,12.43
2022-10-13T06:17:45.856Z,12.43
2022-10-13T06:20:12.698Z,12.42
2022-10-13T06:22:39.208Z,12.44
2022-10-13T06:25:06.854Z,12.44
2022-10-13T06:27:33.474Z,12.44
2022-10-13T06:29:59.875Z,12.45
2022-10-13T06:32:26.952Z,12.47
2022-10-13T06:34:53.834Z,12.49
2022-10-13T06:37:23.440Z,12.51
2022-10-13T06:39:53.640Z,12.54
2022-10-13T06:42:20.326Z,12.56
2022-10-13T06:44:46.881Z,12.59
2022-10-13T06:47:13.419Z,12.62
2022-10-13T06:49:39.949Z,12.64
2022-10-13T06:52:06.349Z,12.68
2022-10-13T06:54:32.840Z,12.71
2022-10-13T06:56:59.197Z,12.74
2022-10-13T06:59:27.609Z,12.79
2022-10-13T07:01:54.419Z,12.82
2022-10-13T07:04:20.799Z,12.86
2022-10-13T07:06:47.151Z,12.88
2022-10-13T07:09:13.663Z,12.93
2022-10-13T07:11:40.201Z,12.96
2022-10-13T07:14:06.537Z,12.99
2022-10-13T07:16:32.864Z,13.02
2022-10-13T07:18:59.231Z,13.06
2022-10-13T07:21:25.644Z,13.09
2022-10-13T07:23:52.137Z,13.13
2022-10-13T07:26:18.554Z,13.15
2022-10-13T07:28:45.212Z,13.20
2022-10-13T07:31:15.403Z,13.26
2022-10-13T07:33:44.183Z,13.31
2022-10-13T07:36:11.347Z,13.38
2022-10-13T07:38:38.235Z,13.48
2022-10-13T07:41:06.331Z,13.58
2022-10-13T07:43:33.026Z,13.67
2022-10-13T07:46:01.577Z,13.77
2022-10-13T07:48:28.478Z,13.88
2022-10-13T07:50:54.906Z,13.97
2022-10-13T07:53:21.352Z,14.06
2022-10-13T07:55:47.872Z,14.15
2022-10-13T07:58:14.214Z,14.23
2022-10-13T08:00:40.602Z,14.31
2022-10-13T08:03:07.102Z,14.40
2022-10-13T08:05:33.632Z,14.47
2022-10-13T08:07:59.957Z,14.59
2022-10-13T08:10:26.382Z,14.68
2022-10-13T08:12:52.775Z,14.76
2022-10-13T08:15:19.117Z,14.85
2022-10-13T08:17:47.967Z,14.96
2022-10-13T08:20:14.335Z,15.01
2022-10-13T08:22:40.663Z,15.09
2022-10-13T08:25:07.475Z,15.15
2022-10-13T08:27:50.191Z,15.18
2022-10-13T08:30:18.535Z,15.21
2022-10-13T08:32:45.026Z,15.23
2022-10-13T08:35:11.677Z,15.24
2022-10-13T08:37:38.028Z,15.24
2022-10-13T08:40:04.730Z,15.24
2022-10-13T08:42:31.097Z,15.26
2022-10-13T08:48:17.335Z,15.30
2022-10-13T08:50:48.763Z,15.30
2022-10-13T08:53:28.062Z,15.32
2022-10-13T08:56:13.927Z,15.34
2022-10-13T08:58:42.370Z,15.35
2022-10-13T09:01:08.637Z,15.39
2022-10-13T09:03:42.080Z,15.43
2022-10-13T09:06:16.972Z,15.48
2022-10-13T09:08:52.494Z,15.52
2022-10-13T09:11:18.895Z,15.55
2022-10-13T09:13:45.294Z,15.57
2022-10-13T09:16:11.930Z,15.59
2022-10-13T09:18:38.659Z,15.61
2022-10-13T09:21:21.811Z,15.66
2022-10-13T09:23:53.959Z,15.69
2022-10-13T09:26:23.399Z,15.72
2022-10-13T09:28:52.082Z,15.75
2022-10-13T09:31:18.447Z,15.79
2022-10-13T09:33:46.406Z,15.84
2022-10-13T09:36:15.756Z,15.92
2022-10-13T09:39:06.486Z,16.01
2022-10-13T09:41:33.995Z,16.09
2022-10-13T09:44:12.477Z,16.20
2022-10-13T09:46:47.731Z,16.33
2022-10-13T09:49:44.850Z,16.48
2022-10-13T09:52:14.142Z,16.61
2022-10-13T09:54:40.626Z,16.72
2022-10-13T09:57:25.740Z,16.84
2022-10-13T09:59:58.751Z,16.94
2022-10-13T10:02:34.289Z,17.04
2022-10-13T10:05:07.520Z,17.15
2022-10-13T10:07:34.157Z,17.19
2022-10-13T10:10:13.341Z,17.26
2022-10-13T10:12:43.171Z,17.31
2022-10-13T10:15:46.532Z,17.37
2022-10-13T10:18:19.092Z,17.42
2022-10-13T10:20:52.352Z,17.45
2022-10-13T10:23:21.734Z,17.50
2022-10-13T10:25:57.938Z,17.55
2022-10-13T10:28:33.114Z,17.60
2022-10-13T10:31:14.815Z,17.63
2022-10-13T10:34:18.897Z,17.66
2022-10-13T10:37:15.212Z,17.67
2022-10-13T10:39:48.436Z,17.67
2022-10-13T10:42:42.434Z,17.66
2022-10-13T10:45:24.013Z,17.65
2022-10-13T10:48:04.641Z,17.65
2022-10-13T10:50:33.577Z,17.62
2022-10-13T10:53:27.831Z,17.63
2022-10-13T10:56:12.656Z,17.62
2022-10-13T10:59:00.753Z,17.62
2022-10-13T11:01:45.982Z,17.61
2022-10-13T11:04:30.773Z,17.62
2022-10-13T11:06:57.288Z,17.63
2022-10-13T11:09:41.767Z,17.68
2022-10-13T11:12:46.038Z,17.73
2022-10-13T11:15:24.551Z,17.79
2022-10-13T11:17:51.635Z,17.83
2022-10-13T11:20:21.006Z,17.89
2022-10-13T11:22:59.596Z,17.97
2022-10-13T11:25:39.923Z,18.04
2022-10-13T11:28:21.571Z,18.07
2022-10-13T11:30:50.737Z,18.08
2022-10-13T11:33:50.138Z,18.11
2022-10-13T11:36:35.877Z,18.13
2022-10-13T11:39:25.502Z,18.16
2022-10-13T11:42:05.564Z,18.19
2022-10-13T11:44:54.402Z,18.26
2022-10-13T11:47:55.382Z,18.33
2022-10-13T11:50:48.491Z,18.43
2022-10-13T11:53:19.003Z,18.50
2022-10-13T11:56:01.277Z,18.59
2022-10-13T11:58:35.169Z,18.69
2022-10-13T12:01:08.919Z,18.77
2022-10-13T12:03:41.030Z,18.89
2022-10-13T12:06:34.170Z,19.01
2022-10-13T12:09:07.442Z,19.13
2022-10-13T12:11:37.523Z,19.25
2022-10-13T12:14:08.158Z,19.35
2022-10-13T12:16:34.553Z,19.45
2022-10-13T12:19:20.572Z,19.56
2022-10-13T12:21:52.067Z,19.66
2022-10-13T12:24:21.300Z,19.73
2022-10-13T12:26:47.840Z,19.81
2022-10-13T12:29:15.490Z,19.87
2022-10-13T12:31:44.794Z,19.93
2022-10-13T12:34:28.258Z,20.00
2022-10-13T12:37:01.293Z,20.04
2022-10-13T12:39:30.785Z,20.06
2022-10-13T12:41:59.034Z,20.10
2022-10-13T12:44:29.043Z,20.13
2022-10-13T12:47:00.424Z,20.15
2022-10-13T12:49:29.221Z,20.21
2022-10-13T12:52:06.298Z,20.25
2022-10-13T12:54:34.851Z,20.27
2022-10-13T12:57:05.581Z,20.29
2022-10-13T12:59:32.329Z,20.28
2022-10-13T13:02:01.962Z,20.29
2022-10-13T13:04:46.736Z,20.30
2022-10-13T13:07:26.586Z,20.30
2022-10-13T13:10:15.244Z,20.29
2022-10-13T13:12:42.386Z,20.28
2022-10-13T13:15:27.353Z,20.30
2022-10-13T13:17:58.998Z,20.29
2022-10-13T13:20:31.696Z,20.29
2022-10-13T13:22:58.311Z,20.29
2022-10-13T13:25:25.021Z,20.31
2022-10-13T13:27:51.837Z,20.33
2022-10-13T13:30:21.205Z,20.35
2022-10-13T13:32:47.671Z,20.35
2022-10-13T13:35:14.104Z,20.36
2022-10-13T13:37:44.491Z,20.35
2022-10-13T13:40:16.927Z,20.34
2022-10-13T13:42:43.342Z,20.30
2022-10-13T13:45:17.387Z,20.27
2022-10-13T13:47:44.147Z,20.22
2022-10-13T13:50:20.702Z,20.18
2022-10-13T13:52:47.683Z,20.13
2022-10-13T13:55:14.181Z,20.09
2022-10-13T13:57:42.743Z,20.06
2022-10-13T14:00:12.168Z,20.02
2022-10-13T14:02:38.557Z,19.99
2022-10-13T14:05:05.769Z,19.95
2022-10-13T14:07:32.104Z,19.90
2022-10-13T14:10:01.813Z,19.85
2022-10-13T14:12:33.245Z,19.82
2022-10-13T14:14:59.875Z,19.76
2022-10-13T14:17:27.498Z,19.70
2022-10-13T14:19:54.116Z,19.64
2022-10-13T14:22:21.543Z,19.61
2022-10-13T14:24:48.193Z,19.56
2022-10-13T14:27:14.820Z,19.51
2022-10-13T14:29:41.187Z,19.47
2022-10-13T14:32:07.582Z,19.43
2022-10-13T14:34:34.058Z,19.39
2022-10-13T14:37:00.450Z,19.35
2022-10-13T14:39:26.870Z,19.29
2022-10-13T14:41:53.345Z,19.25
2022-10-13T14:44:19.703Z,19.20
2022-10-13T14:46:46.069Z,19.16
2022-10-13T14:49:12.724Z,19.14
2022-10-13T14:51:39.090Z,19.10
2022-10-13T14:54:06.899Z,19.07
2022-10-13T14:56:34.091Z,19.04
2022-10-13T14:59:02.448Z,19.02
2022-10-13T15:01:29.331Z,19.02
2022-10-13T15:03:56.127Z,18.99
2022-10-13T15:06:25.102Z,18.98
2022-10-13T15:08:52.209Z,18.94
2022-10-13T15:11:21.232Z,18.92
2022-10-13T15:13:47.881Z,18.86
2022-10-13T15:16:28.598Z,18.84
2022-10-13T15:18:55.682Z,18.79
2022-10-13T15:21:23.143Z,18.73
2022-10-13T15:23:49.954Z,18.69
2022-10-13T15:26:18.775Z,18.63
2022-10-13T15:28:48.010Z,18.60
2022-10-13T15:31:15.750Z,18.56
2022-10-13T15:33:46.951Z,18.53
2022-10-13T15:36:13.892Z,18.49
2022-10-13T15:38:40.466Z,18.46
2022-10-13T15:41:07.845Z,18.45
2022-10-13T15:43:34.834Z,18.41
2022-10-13T15:46:07.443Z,18.40
2022-10-13T15:48:34.726Z,18.37
2022-10-13T15:51:01.990Z,18.33
2022-10-13T15:53:29.690Z,18.31
2022-10-13T15:55:56.079Z,18.29
2022-10-13T15:58:22.627Z,18.26
2022-10-13T16:00:49.002Z,18.22
2022-10-13T16:03:17.426Z,18.21
2022-10-13T16:05:46.971Z,18.19
2022-10-13T16:08:14.386Z,18.14
2022-10-13T16:10:42.393Z,18.12
2022-10-13T16:13:12.329Z,18.08
2022-10-13T16:15:38.836Z,18.05
2022-10-13T16:18:05.282Z,18.01
2022-10-13T16:20:34.854Z,17.99
2022-10-13T16:23:01.638Z,17.94
2022-10-13T16:25:28.055Z,17.91
2022-10-13T16:27:54.385Z,17.87
2022-10-13T16:30:20.735Z,17.84
2022-10-13T16:32:47.100Z,17.81
2022-10-13T16:35:14.945Z,17.77
2022-10-13T16:37:41.347Z,17.76
2022-10-13T16:40:08.462Z,17.71
2022-10-13T16:42:34.789Z,17.68
2022-10-13T16:45:01.711Z,17.65
2022-10-13T16:47:28.047Z,17.63
2022-10-13T16:49:55.015Z,17.60
2022-10-13T16:52:21.421Z,17.59
2022-10-13T16:54:47.944Z,17.55
2022-10-13T16:57:14.353Z,17.54
2022-10-13T16:59:41.017Z,17.52
2022-10-13T17:02:14.459Z,17.52
2022-10-13T17:04:41.385Z,17.50
2022-10-13T17:07:08.171Z,17.50
2022-10-13T17:09:34.811Z,17.48
2022-10-13T17:12:02.100Z,17.47
2022-10-13T17:14:28.459Z,17.46
2022-10-13T17:16:57.714Z,17.44
2022-10-13T17:19:24.595Z,17.43
2022-10-13T17:21:50.984Z,17.40
2022-10-13T17:24:18.186Z,17.38
2022-10-13T17:26:44.660Z,17.38
2022-10-13T17:29:11.094Z,17.37
2022-10-13T17:31:37.450Z,17.35
2022-10-13T17:34:03.814Z,17.34
2022-10-13T17:36:34.216Z,17.33
2022-10-13T17:39:06.571Z,17.34
2022-10-13T17:41:33.465Z,17.31
2022-10-13T17:43:59.985Z,17.31
2022-10-13T17:46:39.339Z,17.32
2022-10-13T17:49:09.400Z,17.30
2022-10-13T17:51:35.798Z,17.28
2022-10-13T17:54:02.491Z,17.28
2022-10-13T17:56:29.390Z,17.28
2022-10-13T17:58:56.675Z,17.27
2022-10-13T18:01:26.715Z,17.27
2022-10-13T18:03:58.637Z,17.27
2022-10-13T18:06:25.489Z,17.25
2022-10-13T18:08:52.361Z,17.25
2022-10-13T18:11:21.827Z,17.24
2022-10-13T18:13:48.790Z,17.23
2022-10-13T18:16:18.381Z,17.24
2022-10-13T18:18:45.881Z,17.22
2022-10-13T18:21:14.556Z,17.22
2022-10-13T18:23:41.923Z,17.20
2022-10-13T18:26:20.007Z,17.22
2022-10-13T18:28:47.907Z,17.17
2022-10-13T18:31:23.374Z,17.14
2022-10-13T18:33:49.735Z,17.10
2022-10-13T18:36:23.899Z,17.10
2022-10-13T18:38:51.631Z,17.05
2022-10-13T18:41:19.118Z,17.05
2022-10-13T18:43:45.533Z,17.04
2022-10-13T18:46:11.996Z,17.02
2022-10-13T18:48:38.986Z,17.02
2022-10-13T18:51:07.412Z,17.02
2022-10-13T18:53:38.204Z,17.03
2022-10-13T18:56:07.779Z,17.03
2022-10-13T18:58:34.344Z,17.03
2022-10-13T19:01:07.698Z,17.03
2022-10-13T19:03:36.039Z,17.03
2022-10-13T19:06:04.656Z,17.02
2022-10-13T19:08:31.058Z,17.02
2022-10-13T19:10:57.527Z,17.02
2022-10-13T19:13:26.060Z,17.02
2022-10-13T19:15:59.145Z,17.03
2022-10-13T19:18:25.482Z,17.01
2022-10-13T19:20:51.863Z,17.02
2022-10-13T19:23:18.375Z,17.00
2022-10-13T19:25:44.943Z,17.00
2022-10-13T19:28:11.803Z,17.00
2022-10-13T19:30:39.266Z,16.99
2022-10-13T19:33:07.204Z,16.99
2022-10-13T19:36:00.296Z,16.99
2022-10-13T19:38:26.690Z,16.96
2022-10-13T19:40:53.125Z,16.94
2022-10-13T19:43:19.869Z,16.92
2022-10-13T19:45:59.621Z,16.91
2022-10-13T19:48:26.778Z,16.89
2022-10-13T19:50:53.215Z,16.87
2022-10-13T19:53:19.738Z,16.87
2022-10-13T19:55:47.436Z,16.86
2022-10-13T19:58:16.075Z,16.84
2022-10-13T20:00:46.426Z,16.85
2022-10-13T20:03:14.171Z,16.83
2022-10-13T20:05:41.007Z,16.82
2022-10-13T20:08:09.499Z,16.82
2022-10-13T20:10:40.478Z,16.82
2022-10-13T20:13:08.451Z,16.82
2022-10-13T20:15:39.582Z,16.83
2022-10-13T20:18:07.047Z,16.82
2022-10-13T20:20:34.625Z,16.82
2022-10-13T20:23:01.011Z,16.83
2022-10-13T20:25:27.604Z,16.84
2022-10-13T20:27:54.101Z,16.84
2022-10-13T20:30:20.481Z,16.85
2022-10-13T20:32:46.834Z,16.84
2022-10-13T20:35:13.475Z,16.84
2022-10-13T20:37:39.831Z,16.84
2022-10-13T20:40:06.743Z,16.85
2022-10-13T20:42:33.082Z,16.84
2022-10-13T20:44:59.438Z,16.83
2022-10-13T20:47:25.959Z,16.82
2022-10-13T20:49:52.503Z,16.82
2022-10-13T20:52:19.006Z,16.82
2022-10-13T20:54:45.348Z,16.81
2022-10-13T20:57:11.771Z,16.81
2022-10-13T20:59:38.240Z,16.80
2022-10-13T21:02:04.597Z,16.80
2022-10-13T21:04:31.114Z,16.80
2022-10-13T21:06:57.476Z,16.79
2022-10-13T21:09:23.881Z,16.78
2022-10-13T21:11:50.239Z,16.77
2022-10-13T21:14:16.637Z,16.76
2022-10-13T21:16:43.192Z,16.76
2022-10-13T21:19:09.698Z,16.76
2022-10-13T21:21:36.574Z,16.75
2022-10-13T21:24:05.501Z,16.76
2022-10-13T21:26:32.738Z,16.75
2022-10-13T21:28:59.505Z,16.76
2022-10-13T21:31:26.268Z,16.75
2022-10-13T21:33:53.571Z,16.75
2022-10-13T21:36:22.648Z,16.76
2022-10-13T21:38:52.370Z,16.77
2022-10-13T21:41:19.001Z,16.76
2022-10-13T21:43:45.372Z,16.76
2022-10-13T21:46:12.797Z,16.75
2022-10-13T21:48:39.255Z,16.75
2022-10-13T21:51:20.872Z,16.76
2022-10-13T21:53:55.793Z,16.75
2022-10-13T21:56:25.567Z,16.74
2022-10-13T21:58:52.723Z,16.74
2022-10-13T22:01:19.997Z,16.73
2022-10-13T22:03:47.620Z,16.73
2022-10-13T22:06:19.092Z,16.74
2022-10-13T22:08:48.060Z,16.74
2022-10-13T22:11:16.472Z,16.74
2022-10-13T22:13:43.191Z,16.73
2022-10-13T22:16:13.158Z,16.74
2022-10-13T22:18:39.569Z,16.73
2022-10-13T22:21:08.231Z,16.73
2022-10-13T22:23:34.686Z,16.72
2022-10-13T22:26:01.046Z,16.72
2022-10-13T22:28:27.516Z,16.70
2022-10-13T22:30:53.963Z,16.69
2022-10-13T22:33:20.887Z,16.67
2022-10-13T22:35:47.512Z,16.66
2022-10-13T22:38:14.747Z,16.65
2022-10-13T22:40:41.896Z,16.64
2022-10-13T22:43:08.831Z,16.61
2022-10-13T22:45:36.326Z,16.61
2022-10-13T22:48:02.895Z,16.60
2022-10-13T22:50:29.487Z,16.58
2022-10-13T22:52:55.849Z,16.58
2022-10-13T22:55:22.391Z,16.58
2022-10-13T22:57:48.781Z,16.57
2022-10-13T23:00:15.811Z,16.56
2022-10-13T23:02:42.151Z,16.56
2022-10-13T23:05:08.677Z,16.55
2022-10-13T23:07:35.036Z,16.55
2022-10-13T23:10:01.411Z,16.54
2022-10-13T23:12:27.739Z,16.54
2022-10-13T23:14:54.193Z,16.52
2022-10-13T23:17:20.817Z,16.51
2022-10-13T23:19:47.358Z,16.50
2022-10-13T23:22:13.876Z,16.49
2022-10-13T23:24:40.199Z,16.48
2022-10-13T23:27:06.558Z,16.48
2022-10-13T23:29:32.905Z,16.46
2022-10-13T23:31:59.270Z,16.45
2022-10-13T23:34:25.735Z,16.41
2022-10-13T23:36:52.079Z,16.41
2022-10-13T23:39:18.559Z,16.38
2022-10-13T23:41:45.074Z,16.37
2022-10-13T23:44:11.431Z,16.36
2022-10-13T23:46:37.750Z,16.35
2022-10-13T23:49:04.176Z,16.35
2022-10-13T23:51:30.703Z,16.34
2022-10-13T23:53:57.095Z,16.34
2022-10-13T23:56:23.700Z,16.34
2022-10-13T23:58:50.718Z,16.34
